createdAt,value
2022-08-26T00:00:12.731Z,980.89
2022-08-26T00:01:12.699Z,980.90
2022-08-26T00:02:12.894Z,980.88
2022-08-26T00:03:12.684Z,980.86
2022-08-26T00:04:12.753Z,980.84
2022-08-26T00:05:12.673Z,980.87
2022-08-26T00:06:12.663Z,980.85
2022-08-26T00:07:12.634Z,980.81
2022-08-26T00:08:13.062Z,980.78
2022-08-26T00:09:12.614Z,980.83
2022-08-26T00:10:12.635Z,980.87
2022-08-26T00:11:12.605Z,980.77
2022-08-26T00:12:12.674Z,980.84
2022-08-26T00:13:13.265Z,980.80
2022-08-26T00:14:12.565Z,980.82
2022-08-26T00:15:12.564Z,980.80
2022-08-26T00:16:12.599Z,980.74
2022-08-26T00:17:12.555Z,980.79
2022-08-26T00:18:22.394Z,980.80
2022-08-26T00:19:13.529Z,980.79
2022-08-26T00:20:12.507Z,980.80
2022-08-26T00:21:12.486Z,980.78
2022-08-26T00:22:12.489Z,980.79
2022-08-26T00:23:13.487Z,980.78
2022-08-26T00:24:12.461Z,980.83
2022-08-26T00:25:12.447Z,980.78
2022-08-26T00:26:12.442Z,980.83
2022-08-26T00:27:12.449Z,980.81
2022-08-26T00:28:12.428Z,980.79
2022-08-26T00:29:12.524Z,980.79
2022-08-26T00:30:12.388Z,980.77
2022-08-26T00:31:12.382Z,980.80
2022-08-26T00:32:12.369Z,980.75
2022-08-26T00:33:12.382Z,980.76
2022-08-26T00:34:12.357Z,980.76
2022-08-26T00:35:12.342Z,980.81
2022-08-26T00:36:14.429Z,980.84
2022-08-26T00:37:16.159Z,980.81
2022-08-26T00:38:12.303Z,980.82
2022-08-26T00:39:12.304Z,980.80
2022-08-26T00:40:12.396Z,980.79
2022-08-26T00:41:12.274Z,980.83
2022-08-26T00:42:12.273Z,980.77
2022-08-26T00:43:12.264Z,980.80
2022-08-26T00:44:12.243Z,980.85
2022-08-26T00:45:12.235Z,980.86
2022-08-26T00:46:12.249Z,980.81
2022-08-26T00:47:12.206Z,980.83
2022-08-26T00:48:12.207Z,980.88
2022-08-26T00:49:12.494Z,980.89
2022-08-26T00:50:12.197Z,980.89
2022-08-26T00:51:12.169Z,980.87
2022-08-26T00:52:13.074Z,980.88
2022-08-26T00:53:12.147Z,980.87
2022-08-26T00:54:12.135Z,980.96
2022-08-26T00:55:12.158Z,980.94
2022-08-26T00:56:13.367Z,980.95
2022-08-26T00:57:15.910Z,980.94
2022-08-26T00:58:12.112Z,980.93
2022-08-26T00:59:12.093Z,980.97
2022-08-26T01:00:12.090Z,980.93
2022-08-26T01:01:12.111Z,980.94
2022-08-26T01:02:20.735Z,980.92
2022-08-26T01:03:13.053Z,980.92
2022-08-26T01:04:12.046Z,980.93
2022-08-26T01:05:12.036Z,980.92
2022-08-26T01:06:13.074Z,980.95
2022-08-26T01:07:12.016Z,980.96
2022-08-26T01:08:12.003Z,980.96
2022-08-26T01:09:12.000Z,980.96
2022-08-26T01:10:11.989Z,980.95
2022-08-26T01:11:11.978Z,980.98
2022-08-26T01:12:11.965Z,980.99
2022-08-26T01:13:11.981Z,980.92
2022-08-26T01:14:11.938Z,980.89
2022-08-26T01:15:11.936Z,981.00
2022-08-26T01:16:11.944Z,981.00
2022-08-26T01:17:11.911Z,981.00
2022-08-26T01:18:11.912Z,980.95
2022-08-26T01:19:11.893Z,980.94
2022-08-26T01:20:11.871Z,980.99
2022-08-26T01:21:11.859Z,980.96
2022-08-26T01:22:11.861Z,981.04
2022-08-26T01:23:11.846Z,980.96
2022-08-26T01:24:11.842Z,980.92
2022-08-26T01:25:11.841Z,980.97
2022-08-26T01:26:19.640Z,980.93
2022-08-26T01:27:12.802Z,980.90
2022-08-26T01:28:11.784Z,980.93
2022-08-26T01:29:11.773Z,980.87
2022-08-26T01:30:11.781Z,980.93
2022-08-26T01:31:11.883Z,980.90
2022-08-26T01:32:11.734Z,980.91
2022-08-26T01:33:11.733Z,980.90
2022-08-26T01:34:11.723Z,980.95
2022-08-26T01:35:11.744Z,980.87
2022-08-26T01:36:11.715Z,980.88
2022-08-26T01:37:11.718Z,980.90
2022-08-26T01:38:11.675Z,980.89
2022-08-26T01:39:11.666Z,980.91
2022-08-26T01:40:11.686Z,980.96
2022-08-26T01:41:11.730Z,980.93
2022-08-26T01:42:12.633Z,980.93
2022-08-26T01:43:11.646Z,980.88
2022-08-26T01:44:11.627Z,980.96
2022-08-26T01:45:11.637Z,980.97
2022-08-26T01:46:11.641Z,980.92
2022-08-26T01:47:11.585Z,980.94
2022-08-26T01:48:11.589Z,980.97
2022-08-26T01:49:11.558Z,980.92
2022-08-26T01:50:11.559Z,980.96
2022-08-26T01:51:11.546Z,981.00
2022-08-26T01:52:11.518Z,980.95
2022-08-26T01:53:11.751Z,980.97
2022-08-26T01:54:12.062Z,980.94
2022-08-26T01:55:11.514Z,980.96
2022-08-26T01:56:11.501Z,980.95
2022-08-26T01:57:11.490Z,980.96
2022-08-26T01:58:11.465Z,980.96
2022-08-26T01:59:12.156Z,981.00
2022-08-26T02:00:11.429Z,980.95
2022-08-26T02:01:11.598Z,980.94
2022-08-26T02:02:11.398Z,980.96
2022-08-26T02:03:11.437Z,980.97
2022-08-26T02:04:11.422Z,980.97
2022-08-26T02:05:11.379Z,980.96
2022-08-26T02:06:11.359Z,980.99
2022-08-26T02:07:11.340Z,980.95
2022-08-26T02:08:11.359Z,981.01
2022-08-26T02:09:11.321Z,980.99
2022-08-26T02:10:11.351Z,980.98
2022-08-26T02:11:11.311Z,980.98
2022-08-26T02:12:11.304Z,980.97
2022-08-26T02:13:11.302Z,980.99
2022-08-26T02:14:11.283Z,980.98
2022-08-26T02:15:11.294Z,981.02
2022-08-26T02:16:11.295Z,981.01
2022-08-26T02:17:11.243Z,981.02
2022-08-26T02:18:14.002Z,981.04
2022-08-26T02:19:11.663Z,981.01
2022-08-26T02:20:14.809Z,981.01
2022-08-26T02:21:11.224Z,981.03
2022-08-26T02:22:11.216Z,981.05
2022-08-26T02:23:11.175Z,980.97
2022-08-26T02:24:11.175Z,981.07
2022-08-26T02:25:11.154Z,981.02
2022-08-26T02:26:11.156Z,981.02
2022-08-26T02:27:11.144Z,981.01
2022-08-26T02:28:11.137Z,981.02
2022-08-26T02:29:11.126Z,981.05
2022-08-26T02:30:11.106Z,981.02
2022-08-26T02:31:11.152Z,981.09
2022-08-26T02:32:11.108Z,981.09
2022-08-26T02:33:11.098Z,981.10
2022-08-26T02:34:11.058Z,981.09
2022-08-26T02:35:11.057Z,981.09
2022-08-26T02:36:13.405Z,981.07
2022-08-26T02:37:11.046Z,981.06
2022-08-26T02:38:11.237Z,981.03
2022-08-26T02:39:11.015Z,981.06
2022-08-26T02:40:11.034Z,981.06
2022-08-26T02:41:11.011Z,980.99
2022-08-26T02:42:10.977Z,980.95
2022-08-26T02:43:10.971Z,980.97
2022-08-26T02:44:10.971Z,980.97
2022-08-26T02:45:10.931Z,980.99
2022-08-26T02:46:11.006Z,980.92
2022-08-26T02:47:10.955Z,980.97
2022-08-26T02:48:10.942Z,980.95
2022-08-26T02:49:10.902Z,981.03
2022-08-26T02:50:10.904Z,980.99
2022-08-26T02:51:10.883Z,981.01
2022-08-26T02:52:10.864Z,980.99
2022-08-26T02:53:10.864Z,981.01
2022-08-26T02:54:10.864Z,980.98
2022-08-26T02:55:10.864Z,980.99
2022-08-26T02:56:10.846Z,980.96
2022-08-26T02:57:10.815Z,980.98
2022-08-26T02:58:10.816Z,981.00
2022-08-26T02:59:10.792Z,980.98
2022-08-26T03:00:10.796Z,980.97
2022-08-26T03:01:10.953Z,980.99
2022-08-26T03:02:10.911Z,980.98
2022-08-26T03:03:10.747Z,980.94
2022-08-26T03:04:10.745Z,981.00
2022-08-26T03:05:10.736Z,980.94
2022-08-26T03:06:10.758Z,980.95
2022-08-26T03:07:10.710Z,980.99
2022-08-26T03:08:10.708Z,980.99
2022-08-26T03:09:10.708Z,980.91
2022-08-26T03:10:11.698Z,980.94
2022-08-26T03:11:10.678Z,980.92
2022-08-26T03:12:10.698Z,980.86
2022-08-26T03:13:10.640Z,980.90
2022-08-26T03:14:10.630Z,980.92
2022-08-26T03:15:17.789Z,980.86
2022-08-26T03:16:11.661Z,980.89
2022-08-26T03:17:10.651Z,980.91
2022-08-26T03:18:10.595Z,980.89
2022-08-26T03:19:10.591Z,980.89
2022-08-26T03:20:10.593Z,980.86
2022-08-26T03:21:10.603Z,980.87
2022-08-26T03:22:10.552Z,980.82
2022-08-26T03:23:10.678Z,980.78
2022-08-26T03:24:10.542Z,980.82
2022-08-26T03:25:10.550Z,980.75
2022-08-26T03:26:10.959Z,980.84
2022-08-26T03:27:10.549Z,980.80
2022-08-26T03:28:10.503Z,980.80
2022-08-26T03:29:10.484Z,980.81
2022-08-26T03:30:11.860Z,980.77
2022-08-26T03:31:10.519Z,980.86
2022-08-26T03:32:10.645Z,980.82
2022-08-26T03:33:10.447Z,980.85
2022-08-26T03:34:11.210Z,980.83
2022-08-26T03:35:10.415Z,980.84
2022-08-26T03:36:10.407Z,980.83
2022-08-26T03:37:10.405Z,980.82
2022-08-26T03:38:10.437Z,980.84
2022-08-26T03:39:10.495Z,980.86
2022-08-26T03:40:10.556Z,980.82
2022-08-26T03:41:10.398Z,980.85
2022-08-26T03:42:10.804Z,980.86
2022-08-26T03:43:10.495Z,980.87
2022-08-26T03:44:10.349Z,980.90
2022-08-26T03:45:10.308Z,980.85
2022-08-26T03:46:11.549Z,980.89
2022-08-26T03:47:10.383Z,980.86
2022-08-26T03:48:11.927Z,980.81
2022-08-26T03:49:10.329Z,980.83
2022-08-26T03:50:10.979Z,980.88
2022-08-26T03:51:10.320Z,980.87
2022-08-26T03:52:11.862Z,980.86
2022-08-26T03:53:13.168Z,980.87
2022-08-26T03:54:10.899Z,980.87
2022-08-26T03:55:11.161Z,980.83
2022-08-26T03:56:10.345Z,980.91
2022-08-26T03:57:10.202Z,980.88
2022-08-26T03:58:10.232Z,980.87
2022-08-26T03:59:10.223Z,980.90
2022-08-26T04:00:10.211Z,980.89
2022-08-26T04:01:10.153Z,980.91
2022-08-26T04:02:11.635Z,980.96
2022-08-26T04:03:10.512Z,980.91
2022-08-26T04:04:10.121Z,980.93
2022-08-26T04:05:11.121Z,980.89
2022-08-26T04:06:10.136Z,980.94
2022-08-26T04:07:10.100Z,980.93
2022-08-26T04:08:10.119Z,980.97
2022-08-26T04:09:10.077Z,980.94
2022-08-26T04:10:10.120Z,980.98
2022-08-26T04:11:10.076Z,980.92
2022-08-26T04:12:10.347Z,980.95
2022-08-26T04:13:10.374Z,980.96
2022-08-26T04:14:10.051Z,980.93
2022-08-26T04:15:09.998Z,980.94
2022-08-26T04:16:10.385Z,980.93
2022-08-26T04:17:10.009Z,980.98
2022-08-26T04:18:10.002Z,980.98
2022-08-26T04:19:10.008Z,980.92
2022-08-26T04:20:09.945Z,980.90
2022-08-26T04:21:09.938Z,980.92
2022-08-26T04:22:09.954Z,980.92
2022-08-26T04:23:09.940Z,980.90
2022-08-26T04:24:11.817Z,980.92
2022-08-26T04:25:09.923Z,980.91
2022-08-26T04:26:09.896Z,980.87
2022-08-26T04:27:09.972Z,980.93
2022-08-26T04:28:09.916Z,980.90
2022-08-26T04:29:09.871Z,980.83
2022-08-26T04:30:09.893Z,980.92
2022-08-26T04:31:09.958Z,980.90
2022-08-26T04:32:09.829Z,980.83
2022-08-26T04:33:13.142Z,980.83
2022-08-26T04:34:10.897Z,980.81
2022-08-26T04:35:09.824Z,980.81
2022-08-26T04:36:09.813Z,980.89
2022-08-26T04:37:09.857Z,980.83
2022-08-26T04:38:09.786Z,980.82
2022-08-26T04:39:09.751Z,980.88
2022-08-26T04:40:09.833Z,980.79
2022-08-26T04:41:15.050Z,980.86
2022-08-26T04:42:10.834Z,980.81
2022-08-26T04:43:09.778Z,980.85
2022-08-26T04:44:09.703Z,980.82
2022-08-26T04:45:09.987Z,980.89
2022-08-26T04:46:09.732Z,980.83
2022-08-26T04:47:09.755Z,980.85
2022-08-26T04:48:11.081Z,980.82
2022-08-26T04:49:11.615Z,980.84
2022-08-26T04:50:09.666Z,980.81
2022-08-26T04:51:09.960Z,980.88
2022-08-26T04:52:09.637Z,980.84
2022-08-26T04:53:09.730Z,980.88
2022-08-26T04:54:09.595Z,980.91
2022-08-26T04:55:09.588Z,980.89
2022-08-26T04:56:09.598Z,980.93
2022-08-26T04:57:09.573Z,980.93
2022-08-26T04:58:10.160Z,980.88
2022-08-26T04:59:16.592Z,980.94
2022-08-26T05:00:11.359Z,980.92
2022-08-26T05:01:09.555Z,980.90
2022-08-26T05:02:09.583Z,980.89
2022-08-26T05:03:10.503Z,980.93
2022-08-26T05:04:09.709Z,980.96
2022-08-26T05:05:09.481Z,980.95
2022-08-26T05:06:09.511Z,980.95
2022-08-26T05:07:09.522Z,980.92
2022-08-26T05:08:09.541Z,981.02
2022-08-26T05:09:09.457Z,980.95
2022-08-26T05:10:09.468Z,980.93
2022-08-26T05:11:09.485Z,980.95
2022-08-26T05:12:09.473Z,980.92
2022-08-26T05:13:11.083Z,980.90
2022-08-26T05:14:09.414Z,981.00
2022-08-26T05:15:09.445Z,981.05
2022-08-26T05:16:09.403Z,981.03
2022-08-26T05:17:09.361Z,981.04
2022-08-26T05:18:10.353Z,981.04
2022-08-26T05:19:09.345Z,981.09
2022-08-26T05:20:09.314Z,981.03
2022-08-26T05:21:09.326Z,981.04
2022-08-26T05:22:09.366Z,981.02
2022-08-26T05:23:09.451Z,981.00
2022-08-26T05:24:09.285Z,981.02
2022-08-26T05:25:09.336Z,981.01
2022-08-26T05:26:09.267Z,981.05
2022-08-26T05:27:11.658Z,981.01
2022-08-26T05:28:09.298Z,981.02
2022-08-26T05:29:09.238Z,981.00
2022-08-26T05:30:09.228Z,981.07
2022-08-26T05:31:09.260Z,981.03
2022-08-26T05:32:09.240Z,981.04
2022-08-26T05:33:09.507Z,981.04
2022-08-26T05:34:09.188Z,981.01
2022-08-26T05:35:09.172Z,981.06
2022-08-26T05:36:09.291Z,981.08
2022-08-26T05:37:09.200Z,981.09
2022-08-26T05:38:12.482Z,981.08
2022-08-26T05:39:10.390Z,981.09
2022-08-26T05:40:09.149Z,981.11
2022-08-26T05:41:09.130Z,981.02
2022-08-26T05:42:09.120Z,981.09
2022-08-26T05:43:09.270Z,981.14
2022-08-26T05:44:09.087Z,981.08
2022-08-26T05:45:09.134Z,981.09
2022-08-26T05:46:09.304Z,981.08
2022-08-26T05:47:09.048Z,981.14
2022-08-26T05:48:09.033Z,981.14
2022-08-26T05:49:12.487Z,981.16
2022-08-26T05:50:09.042Z,981.13
2022-08-26T05:51:09.012Z,981.25
2022-08-26T05:52:08.995Z,981.14
2022-08-26T05:53:09.129Z,981.23
2022-08-26T05:54:10.437Z,981.14
2022-08-26T05:55:08.973Z,981.19
2022-08-26T05:56:08.990Z,981.20
2022-08-26T05:57:09.035Z,981.20
2022-08-26T05:58:08.941Z,981.21
2022-08-26T05:59:14.255Z,981.20
2022-08-26T06:00:09.957Z,981.22
2022-08-26T06:01:08.890Z,981.26
2022-08-26T06:02:08.901Z,981.26
2022-08-26T06:03:09.132Z,981.23
2022-08-26T06:04:08.885Z,981.26
2022-08-26T06:05:08.866Z,981.24
2022-08-26T06:06:08.848Z,981.28
2022-08-26T06:07:09.900Z,981.31
2022-08-26T06:08:08.938Z,981.29
2022-08-26T06:09:10.945Z,981.38
2022-08-26T06:10:31.205Z,981.32
2022-08-26T06:11:18.243Z,981.30
2022-08-26T06:12:09.829Z,981.24
2022-08-26T06:13:11.914Z,981.28
2022-08-26T06:14:08.815Z,981.35
2022-08-26T06:15:08.799Z,981.36
2022-08-26T06:16:08.783Z,981.35
2022-08-26T06:17:09.661Z,981.34
2022-08-26T06:18:08.781Z,981.35
2022-08-26T06:19:11.009Z,981.40
2022-08-26T06:20:08.692Z,981.37
2022-08-26T06:21:08.683Z,981.40
2022-08-26T06:22:08.701Z,981.43
2022-08-26T06:23:08.817Z,981.42
2022-08-26T06:24:08.677Z,981.38
2022-08-26T06:25:08.670Z,981.39
2022-08-26T06:26:08.621Z,981.34
2022-08-26T06:27:08.614Z,981.38
2022-08-26T06:28:08.634Z,981.35
2022-08-26T06:29:08.617Z,981.40
2022-08-26T06:30:08.612Z,981.45
2022-08-26T06:31:08.619Z,981.43
2022-08-26T06:32:08.777Z,981.44
2022-08-26T06:33:08.759Z,981.44
2022-08-26T06:34:10.710Z,981.46
2022-08-26T06:35:12.255Z,981.45
2022-08-26T06:36:08.518Z,981.45
2022-08-26T06:37:08.851Z,981.52
2022-08-26T06:38:08.505Z,981.50
2022-08-26T06:39:08.489Z,981.47
2022-08-26T06:40:08.552Z,981.49
2022-08-26T06:41:08.468Z,981.46
2022-08-26T06:42:08.504Z,981.46
2022-08-26T06:43:08.758Z,981.49
2022-08-26T06:44:08.437Z,981.53
2022-08-26T06:45:08.431Z,981.47
2022-08-26T06:46:08.479Z,981.50
2022-08-26T06:47:08.440Z,981.49
2022-08-26T06:48:09.436Z,981.54
2022-08-26T06:49:08.460Z,981.49
2022-08-26T06:50:08.378Z,981.46
2022-08-26T06:51:08.444Z,981.51
2022-08-26T06:52:08.391Z,981.50
2022-08-26T06:53:08.364Z,981.51
2022-08-26T06:54:08.344Z,981.54
2022-08-26T06:55:08.372Z,981.53
2022-08-26T06:56:08.312Z,981.53
2022-08-26T06:57:08.322Z,981.51
2022-08-26T06:58:08.341Z,981.48
2022-08-26T06:59:08.273Z,981.48
2022-08-26T07:00:08.283Z,981.48
2022-08-26T07:01:11.515Z,981.49
2022-08-26T07:02:08.330Z,981.46
2022-08-26T07:03:08.468Z,981.44
2022-08-26T07:04:10.434Z,981.50
2022-08-26T07:05:08.235Z,981.46
2022-08-26T07:06:08.213Z,981.47
2022-08-26T07:07:08.265Z,981.50
2022-08-26T07:08:08.255Z,981.46
2022-08-26T07:09:09.710Z,981.48
2022-08-26T07:10:08.163Z,981.42
2022-08-26T07:11:08.145Z,981.44
2022-08-26T07:12:09.088Z,981.51
2022-08-26T07:13:08.229Z,981.53
2022-08-26T07:14:08.148Z,981.61
2022-08-26T07:15:08.187Z,981.54
2022-08-26T07:16:08.121Z,981.58
2022-08-26T07:17:12.168Z,981.50
2022-08-26T07:18:09.078Z,981.54
2022-08-26T07:19:11.043Z,981.55
2022-08-26T07:20:08.075Z,981.59
2022-08-26T07:21:08.049Z,981.54
2022-08-26T07:22:08.588Z,981.55
2022-08-26T07:23:08.192Z,981.55
2022-08-26T07:24:08.005Z,981.51
2022-08-26T07:25:08.330Z,981.55
2022-08-26T07:26:08.020Z,981.53
2022-08-26T07:27:08.757Z,981.59
2022-08-26T07:28:07.960Z,981.56
2022-08-26T07:29:07.971Z,981.54
2022-08-26T07:30:07.930Z,981.58
2022-08-26T07:31:09.526Z,981.58
2022-08-26T07:32:07.975Z,981.52
2022-08-26T07:33:08.034Z,981.55
2022-08-26T07:34:07.905Z,981.58
2022-08-26T07:35:07.933Z,981.53
2022-08-26T07:36:07.893Z,981.55
2022-08-26T07:37:08.896Z,981.55
2022-08-26T07:38:07.845Z,981.62
2022-08-26T07:39:07.844Z,981.61
2022-08-26T07:40:07.876Z,981.62
2022-08-26T07:41:07.845Z,981.63
2022-08-26T07:42:08.271Z,981.59
2022-08-26T07:43:07.983Z,981.61
2022-08-26T07:44:07.848Z,981.65
2022-08-26T07:45:07.818Z,981.61
2022-08-26T07:46:07.757Z,981.63
2022-08-26T07:47:10.140Z,981.63
2022-08-26T07:48:07.748Z,981.70
2022-08-26T07:49:07.781Z,981.68
2022-08-26T07:50:07.746Z,981.68
2022-08-26T07:51:07.699Z,981.69
2022-08-26T07:52:07.687Z,981.66
2022-08-26T07:53:07.854Z,981.62
2022-08-26T07:54:07.669Z,981.62
2022-08-26T07:55:07.678Z,981.64
2022-08-26T07:56:07.700Z,981.63
2022-08-26T07:57:08.341Z,981.63
2022-08-26T07:58:07.641Z,981.61
2022-08-26T07:59:08.649Z,981.62
2022-08-26T08:00:08.941Z,981.60
2022-08-26T08:01:07.757Z,981.65
2022-08-26T08:02:07.610Z,981.62
2022-08-26T08:03:07.838Z,981.70
2022-08-26T08:04:07.564Z,981.67
2022-08-26T08:05:07.629Z,981.71
2022-08-26T08:06:07.534Z,981.74
2022-08-26T08:07:07.599Z,981.64
2022-08-26T08:08:26.694Z,981.68
2022-08-26T08:09:08.503Z,981.64
2022-08-26T08:10:09.886Z,981.69
2022-08-26T08:11:07.545Z,981.63
2022-08-26T08:12:07.477Z,981.65
2022-08-26T08:13:07.730Z,981.65
2022-08-26T08:14:08.453Z,981.62
2022-08-26T08:15:07.502Z,981.65
2022-08-26T08:16:07.483Z,981.65
2022-08-26T08:17:08.778Z,981.62
2022-08-26T08:18:07.455Z,981.63
2022-08-26T08:19:08.446Z,981.62
2022-08-26T08:20:07.427Z,981.67
2022-08-26T08:21:24.093Z,981.61
2022-08-26T08:22:17.302Z,981.62
2022-08-26T08:23:08.370Z,981.61
2022-08-26T08:24:07.347Z,981.57
2022-08-26T08:25:08.173Z,981.63
2022-08-26T08:26:07.380Z,981.62
2022-08-26T08:27:07.400Z,981.59
2022-08-26T08:28:07.303Z,981.65
2022-08-26T08:29:07.289Z,981.61
2022-08-26T08:30:07.300Z,981.68
2022-08-26T08:31:07.398Z,981.61
2022-08-26T08:32:11.535Z,981.69
2022-08-26T08:33:08.292Z,981.61
2022-08-26T08:34:07.291Z,981.57
2022-08-26T08:35:11.582Z,981.58
2022-08-26T08:36:07.225Z,981.61
2022-08-26T08:37:10.066Z,981.60
2022-08-26T08:38:07.413Z,981.64
2022-08-26T08:39:07.203Z,981.56
2022-08-26T08:40:07.269Z,981.56
2022-08-26T08:41:07.263Z,981.56
2022-08-26T08:42:07.154Z,981.55
2022-08-26T08:43:07.302Z,981.52
2022-08-26T08:44:07.144Z,981.53
2022-08-26T08:45:07.153Z,981.50
2022-08-26T08:46:07.266Z,981.53
2022-08-26T08:47:07.194Z,981.53
2022-08-26T08:48:07.143Z,981.55
2022-08-26T08:49:07.104Z,981.51
2022-08-26T08:50:07.206Z,981.54
2022-08-26T08:51:07.088Z,981.51
2022-08-26T08:52:07.057Z,981.48
2022-08-26T08:53:08.927Z,981.44
2022-08-26T08:54:07.089Z,981.40
2022-08-26T08:55:11.147Z,981.46
2022-08-26T08:56:08.012Z,981.42
2022-08-26T08:57:07.005Z,981.38
2022-08-26T08:58:08.115Z,981.41
2022-08-26T08:59:06.999Z,981.35
2022-08-26T09:00:06.980Z,981.40
2022-08-26T09:01:07.017Z,981.42
2022-08-26T09:02:07.085Z,981.39
2022-08-26T09:03:06.943Z,981.38
2022-08-26T09:04:06.941Z,981.37
2022-08-26T09:05:06.981Z,981.32
2022-08-26T09:06:06.974Z,981.31
2022-08-26T09:07:06.892Z,981.31
2022-08-26T09:08:06.891Z,981.36
2022-08-26T09:09:06.870Z,981.36
2022-08-26T09:10:06.897Z,981.30
2022-08-26T09:11:06.900Z,981.29
2022-08-26T09:12:06.845Z,981.28
2022-08-26T09:13:06.834Z,981.23
2022-08-26T09:14:06.832Z,981.30
2022-08-26T09:15:07.451Z,981.34
2022-08-26T09:16:06.857Z,981.30
2022-08-26T09:17:06.903Z,981.30
2022-08-26T09:18:06.817Z,981.27
2022-08-26T09:19:06.765Z,981.32
2022-08-26T09:20:06.790Z,981.29
2022-08-26T09:21:06.806Z,981.29
2022-08-26T09:22:09.607Z,981.23
2022-08-26T09:23:06.932Z,981.22
2022-08-26T09:24:06.730Z,981.24
2022-08-26T09:25:06.731Z,981.20
2022-08-26T09:26:06.729Z,981.26
2022-08-26T09:27:06.689Z,981.21
2022-08-26T09:28:06.692Z,981.25
2022-08-26T09:29:06.691Z,981.22
2022-08-26T09:30:06.669Z,981.11
2022-08-26T09:31:10.668Z,981.11
2022-08-26T09:32:06.670Z,981.13
2022-08-26T09:33:10.334Z,981.15
2022-08-26T09:34:06.620Z,981.09
2022-08-26T09:35:06.610Z,981.09
2022-08-26T09:36:06.642Z,981.05
2022-08-26T09:37:06.621Z,981.05
2022-08-26T09:38:09.105Z,981.07
2022-08-26T09:39:07.561Z,981.04
2022-08-26T09:40:06.666Z,981.08
2022-08-26T09:41:06.593Z,981.04
2022-08-26T09:42:06.523Z,981.00
2022-08-26T09:43:06.505Z,981.01
2022-08-26T09:44:06.534Z,980.97
2022-08-26T09:45:06.486Z,980.95
2022-08-26T09:46:06.582Z,980.95
2022-08-26T09:47:06.509Z,980.92
2022-08-26T09:48:07.395Z,980.80
2022-08-26T09:49:06.605Z,980.82
2022-08-26T09:50:09.936Z,980.81
2022-08-26T09:51:07.793Z,980.82
2022-08-26T09:52:06.447Z,980.78
2022-08-26T09:53:09.965Z,980.76
2022-08-26T09:54:08.244Z,980.71
2022-08-26T09:55:06.410Z,980.70
2022-08-26T09:56:06.390Z,980.67
2022-08-26T09:57:06.428Z,980.67
2022-08-26T09:58:07.959Z,980.60
2022-08-26T09:59:06.470Z,980.54
2022-08-26T10:00:06.387Z,980.52
2022-08-26T10:01:06.393Z,980.47
2022-08-26T10:02:06.363Z,980.50
2022-08-26T10:03:07.337Z,980.44
2022-08-26T10:04:06.323Z,980.48
2022-08-26T10:05:09.631Z,980.45
2022-08-26T10:06:06.295Z,980.45
2022-08-26T10:07:06.272Z,980.47
2022-08-26T10:08:06.256Z,980.49
2022-08-26T10:09:09.829Z,980.49
2022-08-26T10:10:06.232Z,980.52
2022-08-26T10:11:06.214Z,980.49
2022-08-26T10:12:06.224Z,980.53
2022-08-26T10:13:06.251Z,980.46
2022-08-26T10:14:06.248Z,980.41
2022-08-26T10:15:06.175Z,980.45
2022-08-26T10:16:06.185Z,980.44
2022-08-26T10:17:07.077Z,980.38
2022-08-26T10:18:06.227Z,980.39
2022-08-26T10:19:06.147Z,980.38
2022-08-26T10:20:06.148Z,980.36
2022-08-26T10:21:07.332Z,980.28
2022-08-26T10:22:06.108Z,980.25
2022-08-26T10:23:06.200Z,980.26
2022-08-26T10:24:06.137Z,980.28
2022-08-26T10:25:06.081Z,980.29
2022-08-26T10:26:06.080Z,980.27
2022-08-26T10:27:06.055Z,980.23
2022-08-26T10:28:06.232Z,980.24
2022-08-26T10:29:06.118Z,980.25
2022-08-26T10:30:06.096Z,980.24
2022-08-26T10:31:06.031Z,980.25
2022-08-26T10:32:06.140Z,980.25
2022-08-26T10:33:06.091Z,980.31
2022-08-26T10:34:06.035Z,980.23
2022-08-26T10:35:06.003Z,980.27
2022-08-26T10:36:05.993Z,980.30
2022-08-26T10:37:14.209Z,980.32
2022-08-26T10:38:07.052Z,980.24
2022-08-26T10:39:05.936Z,980.31
2022-08-26T10:40:05.986Z,980.26
2022-08-26T10:41:09.692Z,980.27
2022-08-26T10:42:05.986Z,980.27
2022-08-26T10:43:11.064Z,980.27
2022-08-26T10:44:06.887Z,980.26
2022-08-26T10:45:05.866Z,980.20
2022-08-26T10:46:06.949Z,980.19
2022-08-26T10:47:05.847Z,980.19
2022-08-26T10:48:05.878Z,980.17
2022-08-26T10:49:06.538Z,980.15
2022-08-26T10:50:05.829Z,980.11
2022-08-26T10:51:05.879Z,980.13
2022-08-26T10:52:12.197Z,980.15
2022-08-26T10:53:07.622Z,980.14
2022-08-26T10:54:05.801Z,980.11
2022-08-26T10:55:05.779Z,980.09
2022-08-26T10:56:06.041Z,980.10
2022-08-26T10:57:06.731Z,980.09
2022-08-26T10:58:07.282Z,980.01
2022-08-26T10:59:05.763Z,980.01
2022-08-26T11:00:05.723Z,979.99
2022-08-26T11:01:10.223Z,979.93
2022-08-26T11:02:06.803Z,979.92
2022-08-26T11:03:05.734Z,979.87
2022-08-26T11:04:05.784Z,979.90
2022-08-26T11:05:05.704Z,979.90
2022-08-26T11:06:05.655Z,979.95
2022-08-26T11:07:05.636Z,979.86
2022-08-26T11:08:06.073Z,979.92
2022-08-26T11:09:05.641Z,979.89
2022-08-26T11:10:05.697Z,979.89
2022-08-26T11:11:05.654Z,979.86
2022-08-26T11:12:10.029Z,979.78
2022-08-26T11:13:05.642Z,979.81
2022-08-26T11:14:05.594Z,979.75
2022-08-26T11:15:05.571Z,979.72
2022-08-26T11:16:05.627Z,979.77
2022-08-26T11:17:05.540Z,979.73
2022-08-26T11:18:05.529Z,979.76
2022-08-26T11:19:05.551Z,979.79
2022-08-26T11:20:09.178Z,979.80
2022-08-26T11:21:06.513Z,979.75
2022-08-26T11:22:05.591Z,979.80
2022-08-26T11:23:05.514Z,979.81
2022-08-26T11:24:05.564Z,979.72
2022-08-26T11:25:05.552Z,979.83
2022-08-26T11:26:05.464Z,979.74
2022-08-26T11:27:05.435Z,979.76
2022-08-26T11:28:05.425Z,979.66
2022-08-26T11:29:12.139Z,979.68
2022-08-26T11:30:06.415Z,979.72
2022-08-26T11:31:05.400Z,979.76
2022-08-26T11:32:05.426Z,979.72
2022-08-26T11:33:05.382Z,979.62
2022-08-26T11:34:05.424Z,979.59
2022-08-26T11:35:05.336Z,979.57
2022-08-26T11:36:12.099Z,979.64
2022-08-26T11:37:06.325Z,979.65
2022-08-26T11:38:05.457Z,979.62
2022-08-26T11:39:05.337Z,979.52
2022-08-26T11:40:05.406Z,979.48
2022-08-26T11:41:05.308Z,979.50
2022-08-26T11:42:05.269Z,979.44
2022-08-26T11:43:05.271Z,979.50
2022-08-26T11:44:05.350Z,979.45
2022-08-26T11:45:05.651Z,979.45
2022-08-26T11:46:05.315Z,979.45
2022-08-26T11:47:05.340Z,979.51
2022-08-26T11:48:06.268Z,979.39
2022-08-26T11:49:05.222Z,979.43
2022-08-26T11:50:05.203Z,979.43
2022-08-26T11:51:05.223Z,979.43
2022-08-26T11:52:05.173Z,979.40
2022-08-26T11:53:06.136Z,979.46
2022-08-26T11:54:05.214Z,979.39
2022-08-26T11:55:05.147Z,979.41
2022-08-26T11:56:05.154Z,979.37
2022-08-26T11:57:11.782Z,979.40
2022-08-26T11:58:06.151Z,979.43
2022-08-26T11:59:05.104Z,979.43
2022-08-26T12:00:06.451Z,979.51
2022-08-26T12:01:05.107Z,979.54
2022-08-26T12:02:05.087Z,979.54
2022-08-26T12:03:05.130Z,979.55
2022-08-26T12:04:05.162Z,979.63
2022-08-26T12:05:05.102Z,979.62
2022-08-26T12:06:05.052Z,979.67
2022-08-26T12:07:05.033Z,979.66
2022-08-26T12:08:05.040Z,979.54
2022-08-26T12:09:05.010Z,979.53
2022-08-26T12:10:05.044Z,979.57
2022-08-26T12:11:04.986Z,979.57
2022-08-26T12:12:04.971Z,979.46
2022-08-26T12:13:05.962Z,979.47
2022-08-26T12:14:04.976Z,979.42
2022-08-26T12:15:04.943Z,979.35
2022-08-26T12:16:04.997Z,979.46
2022-08-26T12:17:04.974Z,979.47
2022-08-26T12:18:05.054Z,979.38
2022-08-26T12:19:04.885Z,979.47
2022-08-26T12:20:04.884Z,979.34
2022-08-26T12:21:04.915Z,979.46
2022-08-26T12:22:04.884Z,979.43
2022-08-26T12:23:04.853Z,979.44
2022-08-26T12:24:04.859Z,979.43
2022-08-26T12:25:04.857Z,979.36
2022-08-26T12:26:04.939Z,979.41
2022-08-26T12:27:04.798Z,979.33
2022-08-26T12:28:04.859Z,979.31